Hauptseite
METAR-TAF:

METAR-TAF

Flughäfen :

Heringsdorf, Deutschland

Flughafen Heringsdorf

Breite: 53-53N, Länge: 014-09E, Höhe: 28 m

Beobachtung

Neuester Wetterbericht von vor 17 Minuten, um 10:50 UTC
Wind 9 kt aus Süd/Südwest, variierte zwischen Süd und Südwest
Temperatur 9°C
Luftfeuchtigkeit 71%
Luftdruck 1004 hPa
Sichtweite 10 km oder mehr
keine Wolken unter 1500 m und keine Kumulonimbus oder Gewitterwolken

METAR: EDAH 271050Z 20009KT 170V230 CAVOK 09/04 Q1004

Zeit: 12:07 (11:07 UTC)

Prognose

Neuester Wetterbericht von vor 3 Stunden und 7 Minuten, um 08:00 UTC
Gültige Prognose vom 27 um 09 UTC bis 27 um 18 UTC
Wind 8 kt aus Süd
Sichtweite 10 km oder mehr
Leicht bewölkt in der Höhe von 3000 ft

TAF: EDAH 270800Z 2709/2718 19008KT 9999 FEW030

Wetterbeobachtungen und Prognosen von mehr als 4000 Flughäfen (METAR und TAF Bericht).

Die verfügbaren Stationen werden durch gelbe und rote Markierungen auf der Karte dargestellt.

Führen Sie die Maus auf sie, um den Namen der Station zu sehen.

Darauf klicken, um die Beobachtung von Wetterbeobachtungen und Prognosen zu sehen.

Um die Karte zu ändern : klicken Sie auf den grünen Tasten mit einem schwarzen Kreuz Zum Vergrößern, auf den grünen Button mit einem Gedankenstrich zu verkleinern, oder auf die grünen Pfeile für benachbarte Karten.


METAR-TAF: